createdAt,value
2023-02-11T00:01:36.212Z,100934.75
2023-02-11T00:04:06.675Z,100931.44
2023-02-11T00:06:39.268Z,100939.44
2023-02-11T00:09:07.780Z,100930.84
2023-02-11T00:11:35.871Z,100929.22
2023-02-11T00:14:09.501Z,100929.91
2023-02-11T00:16:37.283Z,100928.66
2023-02-11T00:19:06.500Z,100931.31
2023-02-11T00:21:36.059Z,100929.78
2023-02-11T00:24:06.196Z,100928.31
2023-02-11T00:26:36.560Z,100933.28
2023-02-11T00:29:05.976Z,100928.25
2023-02-11T00:31:35.007Z,100933.13
2023-02-11T00:34:03.154Z,100936.63
2023-02-11T00:36:31.630Z,100924.81
2023-02-11T00:39:00.463Z,100931.78
2023-02-11T00:41:29.370Z,100920.13
2023-02-11T00:43:59.132Z,100918.66
2023-02-11T00:46:26.535Z,100913.94
2023-02-11T00:48:57.614Z,100908.47
2023-02-11T00:51:27.861Z,100910.59
2023-02-11T00:53:55.547Z,100904.00
2023-02-11T00:56:23.950Z,100911.75
2023-02-11T00:58:51.626Z,100914.41
2023-02-11T01:01:20.584Z,100909.31
2023-02-11T01:03:51.340Z,100916.28
2023-02-11T01:06:20.065Z,100916.16
2023-02-11T01:08:47.912Z,100915.81
2023-02-11T01:11:21.228Z,100913.66
2023-02-11T01:13:53.391Z,100909.59
2023-02-11T01:16:22.966Z,100907.13
2023-02-11T01:18:53.786Z,100895.44
2023-02-11T01:21:21.291Z,100909.03
2023-02-11T01:23:52.490Z,100898.59
2023-02-11T01:26:20.789Z,100870.22
2023-02-11T01:28:48.868Z,100878.00
2023-02-11T01:31:19.363Z,100871.13
2023-02-11T01:33:46.882Z,100889.16
2023-02-11T01:36:14.802Z,100877.19
2023-02-11T01:38:44.446Z,100876.97
2023-02-11T01:41:15.242Z,100871.97
2023-02-11T01:43:49.858Z,100875.69
2023-02-11T01:46:50.042Z,100872.94
2023-02-11T01:49:36.629Z,100878.81
2023-02-11T01:52:20.431Z,100877.84
2023-02-11T01:55:18.063Z,100873.13
2023-02-11T01:57:52.742Z,100872.53
2023-02-11T02:00:33.514Z,100871.34
2023-02-11T02:03:14.749Z,100868.31
2023-02-11T02:06:36.315Z,100865.81
2023-02-11T02:09:18.939Z,100857.31
2023-02-11T02:11:46.353Z,100865.56
2023-02-11T02:14:17.476Z,100859.88
2023-02-11T02:16:46.698Z,100858.19
2023-02-11T02:20:15.043Z,100839.56
2023-02-11T02:22:59.651Z,100851.69
2023-02-11T02:26:19.995Z,100848.75
2023-02-11T02:29:46.545Z,100851.63
2023-02-11T02:32:43.537Z,100840.53
2023-02-11T02:35:38.363Z,100841.06
2023-02-11T02:38:17.262Z,100833.16
2023-02-11T02:41:02.728Z,100829.28
2023-02-11T02:43:31.589Z,100826.25
2023-02-11T02:46:15.044Z,100831.09
2023-02-11T02:48:43.266Z,100826.66
2023-02-11T02:51:52.744Z,100819.69
2023-02-11T02:55:00.159Z,100824.25
2023-02-11T02:57:59.379Z,100819.06
2023-02-11T03:01:18.960Z,100801.59
2023-02-11T03:04:12.329Z,100811.50
2023-02-11T03:07:22.834Z,100799.25
2023-02-11T03:10:19.342Z,100805.88
2023-02-11T03:12:48.815Z,100806.59
2023-02-11T03:15:21.574Z,100802.78
2023-02-11T03:17:53.502Z,100810.09
2023-02-11T03:20:24.080Z,100799.59
2023-02-11T03:23:03.789Z,100797.38
2023-02-11T03:25:42.413Z,100800.88
2023-02-11T03:28:31.032Z,100795.66
2023-02-11T03:31:48.237Z,100803.72
2023-02-11T03:34:42.691Z,100793.44
2023-02-11T03:37:36.412Z,100796.88
2023-02-11T03:40:12.731Z,100796.88
2023-02-11T03:43:05.453Z,100801.34
2023-02-11T03:45:33.588Z,100808.59
2023-02-11T03:48:13.248Z,100807.16
2023-02-11T03:50:45.101Z,100801.59
2023-02-11T03:53:16.390Z,100804.91
2023-02-11T03:55:47.543Z,100806.84
2023-02-11T03:58:15.298Z,100809.34
2023-02-11T04:00:46.400Z,100802.09
2023-02-11T04:03:14.585Z,100801.25
2023-02-11T04:05:44.798Z,100808.03
2023-02-11T04:08:12.456Z,100808.69
2023-02-11T04:10:41.457Z,100810.66
2023-02-11T04:13:08.934Z,100814.44
2023-02-11T04:15:36.475Z,100818.69
2023-02-11T04:18:07.551Z,100825.22
2023-02-11T04:20:35.080Z,100830.75
2023-02-11T04:23:02.447Z,100832.50
2023-02-11T04:25:29.841Z,100837.03
2023-02-11T04:27:57.387Z,100830.91
2023-02-11T04:30:25.942Z,100831.06
2023-02-11T04:32:54.620Z,100833.25
2023-02-11T04:35:22.528Z,100828.91
2023-02-11T04:37:50.393Z,100838.06
2023-02-11T04:40:18.021Z,100819.81
2023-02-11T04:42:45.312Z,100826.53
2023-02-11T04:45:12.571Z,100832.78
2023-02-11T04:47:39.982Z,100837.84
2023-02-11T04:50:07.702Z,100833.44
2023-02-11T04:52:35.044Z,100827.38
2023-02-11T04:55:02.429Z,100831.84
2023-02-11T04:57:30.132Z,100824.22
2023-02-11T04:59:57.680Z,100828.78
2023-02-11T05:02:25.370Z,100826.72
2023-02-11T05:04:53.199Z,100828.66
2023-02-11T05:07:20.987Z,100813.41
2023-02-11T05:09:48.356Z,100813.59
2023-02-11T05:12:15.767Z,100808.75
2023-02-11T05:14:43.225Z,100813.47
2023-02-11T05:17:10.741Z,100795.72
2023-02-11T05:19:38.219Z,100802.50
2023-02-11T05:22:05.604Z,100790.81
2023-02-11T05:24:33.335Z,100766.34
2023-02-11T05:27:01.847Z,100762.94
2023-02-11T05:29:29.249Z,100754.59
2023-02-11T05:31:56.599Z,100756.84
2023-02-11T05:34:24.008Z,100742.72
2023-02-11T05:37:17.503Z,100753.41
2023-02-11T05:39:45.027Z,100747.09
2023-02-11T05:42:12.375Z,100748.63
2023-02-11T05:44:39.911Z,100758.19
2023-02-11T05:47:08.999Z,100758.47
2023-02-11T05:49:36.338Z,100758.09
2023-02-11T05:52:04.418Z,100764.47
2023-02-11T05:54:32.204Z,100768.22
2023-02-11T05:57:01.961Z,100756.94
2023-02-11T05:59:29.780Z,100757.22
2023-02-11T06:02:00.122Z,100748.00
2023-02-11T06:04:28.207Z,100748.31
2023-02-11T06:06:55.980Z,100744.84
2023-02-11T06:09:26.587Z,100748.59
2023-02-11T06:11:54.186Z,100750.19
2023-02-11T06:14:22.018Z,100753.06
2023-02-11T06:16:49.478Z,100769.38
2023-02-11T06:19:17.015Z,100767.78
2023-02-11T06:21:44.746Z,100770.25
2023-02-11T06:24:13.021Z,100770.94
2023-02-11T06:26:40.724Z,100763.91
2023-02-11T06:29:08.690Z,100782.34
2023-02-11T06:31:39.211Z,100773.41
2023-02-11T06:34:08.729Z,100771.41
2023-02-11T06:36:39.172Z,100761.00
2023-02-11T06:39:14.823Z,100768.94
2023-02-11T06:41:44.342Z,100771.13
2023-02-11T06:44:11.934Z,100763.59
2023-02-11T06:46:39.337Z,100768.94
2023-02-11T06:49:06.976Z,100772.84
2023-02-11T06:51:34.370Z,100779.16
2023-02-11T06:54:01.950Z,100776.13
2023-02-11T06:56:30.542Z,100781.03
2023-02-11T06:59:01.509Z,100777.72
2023-02-11T07:01:29.697Z,100781.34
2023-02-11T07:03:57.590Z,100787.25
2023-02-11T07:06:28.300Z,100798.34
2023-02-11T07:08:58.167Z,100791.28
2023-02-11T07:11:29.736Z,100787.81
2023-02-11T07:14:08.611Z,100784.03
2023-02-11T07:16:39.373Z,100796.03
2023-02-11T07:19:07.606Z,100789.81
2023-02-11T07:21:38.119Z,100778.19
2023-02-11T07:24:11.625Z,100780.63
2023-02-11T07:26:42.793Z,100779.13
2023-02-11T07:29:12.098Z,100779.94
2023-02-11T07:31:47.094Z,100776.22
2023-02-11T07:34:14.873Z,100767.28
2023-02-11T07:36:43.859Z,100774.69
2023-02-11T07:39:13.712Z,100783.88
2023-02-11T07:41:41.004Z,100783.47
2023-02-11T07:44:08.663Z,100786.19
2023-02-11T07:46:36.040Z,100792.63
2023-02-11T07:49:03.689Z,100782.81
2023-02-11T07:51:31.838Z,100788.00
2023-02-11T07:54:01.058Z,100783.34
2023-02-11T07:56:30.635Z,100786.13
2023-02-11T07:59:03.718Z,100781.00
2023-02-11T08:01:31.777Z,100776.94
2023-02-11T08:04:02.686Z,100779.25
2023-02-11T08:06:35.243Z,100780.59
2023-02-11T08:09:09.652Z,100775.63
2023-02-11T08:11:36.984Z,100776.56
2023-02-11T08:14:11.095Z,100777.34
2023-02-11T08:16:39.359Z,100770.69
2023-02-11T08:19:13.367Z,100777.09
2023-02-11T08:21:42.399Z,100770.41
2023-02-11T08:24:11.142Z,100770.66
2023-02-11T08:26:38.663Z,100773.59
2023-02-11T08:29:13.593Z,100763.59
2023-02-11T08:31:47.023Z,100778.91
2023-02-11T08:34:19.061Z,100786.19
2023-02-11T08:36:54.095Z,100785.69
2023-02-11T08:39:23.390Z,100793.56
2023-02-11T08:41:56.755Z,100788.13
2023-02-11T08:44:25.252Z,100784.16
2023-02-11T08:46:53.753Z,100780.56
2023-02-11T08:49:22.196Z,100779.72
2023-02-11T08:51:50.294Z,100783.88
2023-02-11T08:54:18.294Z,100778.69
2023-02-11T08:56:48.953Z,100783.22
2023-02-11T08:59:17.916Z,100772.47
2023-02-11T09:01:47.367Z,100777.00
2023-02-11T09:04:15.397Z,100776.34
2023-02-11T09:06:48.051Z,100779.00
2023-02-11T09:09:18.220Z,100788.94
2023-02-11T09:11:46.246Z,100792.75
2023-02-11T09:14:21.918Z,100791.31
2023-02-11T09:16:50.858Z,100796.44
2023-02-11T09:19:23.266Z,100794.84
2023-02-11T09:21:51.361Z,100786.13
2023-02-11T09:24:19.696Z,100779.28
2023-02-11T09:26:49.972Z,100773.44
2023-02-11T09:29:23.841Z,100766.75
2023-02-11T09:32:17.348Z,100773.78
2023-02-11T09:34:47.792Z,100754.22
2023-02-11T09:37:18.448Z,100757.88
2023-02-11T09:39:46.831Z,100768.09
2023-02-11T09:42:31.519Z,100764.97
2023-02-11T09:45:02.605Z,100762.38
2023-02-11T09:47:41.507Z,100762.06
2023-02-11T09:50:22.139Z,100763.63
2023-02-11T09:53:20.976Z,100770.09
2023-02-11T09:56:01.591Z,100768.84
2023-02-11T09:58:36.142Z,100769.16
2023-02-11T10:01:31.076Z,100778.75
2023-02-11T10:05:09.969Z,100772.38
2023-02-11T10:08:21.016Z,100766.75
2023-02-11T10:10:53.310Z,100778.84
2023-02-11T10:13:44.119Z,100775.97
2023-02-11T10:17:17.821Z,100775.97
2023-02-11T10:20:39.178Z,100774.88
2023-02-11T10:23:39.587Z,100771.31
2023-02-11T10:26:21.493Z,100776.69
2023-02-11T10:29:00.507Z,100773.41
2023-02-11T10:31:40.553Z,100778.09
2023-02-11T10:34:17.287Z,100776.25
2023-02-11T10:36:45.863Z,100775.00
2023-02-11T10:39:24.501Z,100769.59
2023-02-11T10:42:00.877Z,100772.41
2023-02-11T10:44:40.932Z,100759.75
2023-02-11T10:48:04.557Z,100758.56
2023-02-11T10:50:50.815Z,100757.31
2023-02-11T10:53:27.352Z,100749.06
2023-02-11T10:56:00.326Z,100750.19
2023-02-11T10:59:30.952Z,100730.78
2023-02-11T11:02:25.015Z,100726.28
2023-02-11T11:04:59.323Z,100728.63
2023-02-11T11:07:32.224Z,100722.97
2023-02-11T11:10:35.582Z,100713.84
2023-02-11T11:13:30.060Z,100703.63
2023-02-11T11:16:35.937Z,100705.38
2023-02-11T11:20:10.727Z,100714.06
2023-02-11T11:23:11.331Z,100702.44
2023-02-11T11:26:13.268Z,100702.31
2023-02-11T11:29:09.672Z,100701.59
2023-02-11T11:32:06.674Z,100695.66
2023-02-11T11:34:39.727Z,100698.22
2023-02-11T11:37:25.627Z,100698.44
2023-02-11T11:40:34.671Z,100696.47
2023-02-11T11:43:14.364Z,100703.47
2023-02-11T11:46:25.895Z,100691.75
2023-02-11T11:49:16.558Z,100686.59
2023-02-11T11:52:45.535Z,100685.88
2023-02-11T11:55:58.708Z,100681.31
2023-02-11T11:58:30.776Z,100688.84
2023-02-11T12:01:42.339Z,100684.06
2023-02-11T12:04:24.341Z,100675.88
2023-02-11T12:07:12.859Z,100676.16
2023-02-11T12:10:41.938Z,100676.28
2023-02-11T12:13:52.656Z,100675.13
2023-02-11T12:16:45.505Z,100683.34
2023-02-11T12:19:18.652Z,100676.16
2023-02-11T12:22:27.109Z,100672.25
2023-02-11T12:25:30.304Z,100668.75
2023-02-11T12:28:35.285Z,100666.78
2023-02-11T12:31:26.848Z,100672.44
2023-02-11T12:34:47.290Z,100672.66
2023-02-11T12:37:46.462Z,100672.00
2023-02-11T12:40:58.800Z,100676.09
2023-02-11T12:43:39.992Z,100675.44
2023-02-11T12:47:11.698Z,100661.91
2023-02-11T12:50:30.666Z,100659.84
2023-02-11T12:53:23.010Z,100652.28
2023-02-11T12:56:02.554Z,100660.13
2023-02-11T12:59:51.078Z,100656.91
2023-02-11T13:02:35.424Z,100646.72
2023-02-11T13:05:32.412Z,100638.66
2023-02-11T13:08:32.171Z,100636.81
2023-02-11T13:11:14.351Z,100631.94
2023-02-11T13:14:10.185Z,100635.31
2023-02-11T13:16:48.634Z,100630.56
2023-02-11T13:19:37.014Z,100632.75
2023-02-11T13:22:31.581Z,100631.44
2023-02-11T13:25:42.432Z,100612.94
2023-02-11T13:28:40.845Z,100619.09
2023-02-11T13:31:13.593Z,100623.03
2023-02-11T13:33:44.694Z,100621.69
2023-02-11T13:36:22.427Z,100621.25
2023-02-11T13:48:27.478Z,100607.81
2023-02-11T13:52:01.917Z,100611.03
2023-02-11T13:55:27.802Z,100614.31
2023-02-11T14:04:33.401Z,100610.88
2023-02-11T14:18:47.042Z,100611.09
2023-02-11T14:21:29.585Z,100595.75
2023-02-11T14:24:02.522Z,100602.59
2023-02-11T14:26:55.126Z,100606.81
2023-02-11T14:29:40.821Z,100605.94
2023-02-11T14:32:38.809Z,100605.16
2023-02-11T14:35:29.514Z,100592.28
2023-02-11T14:38:23.800Z,100599.69
2023-02-11T14:41:20.825Z,100601.94
2023-02-11T14:44:02.268Z,100596.16
2023-02-11T14:46:30.788Z,100600.28
2023-02-11T14:49:03.720Z,100601.16
2023-02-11T14:51:41.361Z,100610.19
2023-02-11T14:54:24.019Z,100609.38
2023-02-11T14:57:18.165Z,100610.56
2023-02-11T14:59:59.478Z,100610.13
2023-02-11T15:02:38.956Z,100614.66
2023-02-11T15:05:29.049Z,100615.63
2023-02-11T15:08:00.773Z,100615.91
2023-02-11T15:10:44.337Z,100616.31
2023-02-11T15:13:27.171Z,100612.03
2023-02-11T15:16:25.143Z,100618.00
2023-02-11T15:19:01.771Z,100618.06
2023-02-11T15:21:34.732Z,100624.34
2023-02-11T15:24:28.650Z,100615.41
2023-02-11T15:27:12.723Z,100610.91
2023-02-11T15:29:46.548Z,100611.13
2023-02-11T15:32:25.632Z,100604.34
2023-02-11T15:34:56.809Z,100614.19
2023-02-11T15:37:32.387Z,100615.41
2023-02-11T15:40:23.139Z,100623.84
2023-02-11T15:43:09.884Z,100627.06
2023-02-11T15:45:45.312Z,100632.13
2023-02-11T15:48:38.568Z,100632.13
2023-02-11T15:51:35.516Z,100631.78
2023-02-11T15:54:16.752Z,100636.28
2023-02-11T15:57:03.583Z,100635.63
2023-02-11T15:59:46.381Z,100643.53
2023-02-11T16:02:31.004Z,100642.44
2023-02-11T16:05:09.752Z,100637.03
2023-02-11T16:07:50.978Z,100643.25
2023-02-11T16:10:35.237Z,100649.59
2023-02-11T16:13:08.327Z,100650.84
2023-02-11T16:15:38.324Z,100653.94
2023-02-11T16:18:38.269Z,100659.00
2023-02-11T16:21:18.317Z,100665.00
2023-02-11T16:23:58.242Z,100667.19
2023-02-11T16:26:50.555Z,100673.16
2023-02-11T16:29:28.053Z,100679.97
2023-02-11T16:32:23.752Z,100678.91
2023-02-11T16:35:00.980Z,100682.72
2023-02-11T16:37:28.728Z,100684.38
2023-02-11T16:39:59.093Z,100688.84
2023-02-11T16:42:26.444Z,100690.41
2023-02-11T16:44:53.957Z,100696.19
2023-02-11T16:47:28.080Z,100702.50
2023-02-11T16:49:57.176Z,100701.22
2023-02-11T16:52:25.675Z,100695.63
2023-02-11T16:54:53.608Z,100697.22
2023-02-11T16:57:26.931Z,100696.63
2023-02-11T16:59:55.672Z,100694.84
2023-02-11T17:02:30.842Z,100710.84
2023-02-11T17:05:03.004Z,100712.28
2023-02-11T17:07:30.989Z,100713.09
2023-02-11T17:09:58.568Z,100720.66
2023-02-11T17:12:26.124Z,100719.81
2023-02-11T17:14:54.463Z,100718.81
2023-02-11T17:17:24.752Z,100723.56
2023-02-11T17:19:51.975Z,100730.97
2023-02-11T17:22:19.382Z,100733.44
2023-02-11T17:24:46.531Z,100735.63
2023-02-11T17:27:14.027Z,100732.16
2023-02-11T17:29:41.670Z,100729.03
2023-02-11T17:32:09.477Z,100717.53
2023-02-11T17:34:36.964Z,100720.47
2023-02-11T17:37:09.688Z,100722.38
2023-02-11T17:39:40.501Z,100721.16
2023-02-11T17:42:11.720Z,100722.63
2023-02-11T17:44:39.058Z,100716.19
2023-02-11T17:47:06.500Z,100726.88
2023-02-11T17:49:33.986Z,100723.91
2023-02-11T17:52:01.506Z,100735.47
2023-02-11T17:54:28.948Z,100732.53
2023-02-11T17:56:58.309Z,100731.69
2023-02-11T17:59:26.512Z,100737.31
2023-02-11T18:01:54.074Z,100737.97
2023-02-11T18:04:25.011Z,100740.25
2023-02-11T18:06:58.908Z,100739.56
2023-02-11T18:09:27.167Z,100740.09
2023-02-11T18:11:55.368Z,100751.31
2023-02-11T18:14:32.442Z,100746.66
2023-02-11T18:17:00.286Z,100750.00
2023-02-11T18:19:30.617Z,100755.66
2023-02-11T18:22:01.065Z,100757.03
2023-02-11T18:24:28.951Z,100755.69
2023-02-11T18:27:01.377Z,100751.81
2023-02-11T18:29:29.711Z,100759.47
2023-02-11T18:31:58.060Z,100755.59
2023-02-11T18:34:26.328Z,100762.41
2023-02-11T18:36:54.194Z,100756.38
2023-02-11T18:39:24.374Z,100777.50
2023-02-11T18:41:54.647Z,100769.59
2023-02-11T18:44:24.022Z,100774.00
2023-02-11T18:46:52.937Z,100767.31
2023-02-11T18:49:21.182Z,100772.78
2023-02-11T18:51:52.215Z,100766.94
2023-02-11T18:54:22.455Z,100768.13
2023-02-11T18:56:50.063Z,100772.78
2023-02-11T18:59:17.282Z,100776.19
2023-02-11T19:01:46.922Z,100766.53
2023-02-11T19:04:19.668Z,100766.66
2023-02-11T19:06:51.625Z,100779.34
2023-02-11T19:09:23.049Z,100776.00
2023-02-11T19:11:50.900Z,100769.47
2023-02-11T19:14:25.812Z,100761.41
2023-02-11T19:16:59.587Z,100760.03
2023-02-11T19:19:35.494Z,100764.53
2023-02-11T19:22:08.573Z,100757.75
2023-02-11T19:24:39.553Z,100760.19
2023-02-11T19:27:06.984Z,100773.75
2023-02-11T19:29:35.209Z,100763.13
2023-02-11T19:32:07.048Z,100756.38
2023-02-11T19:34:43.323Z,100769.34
2023-02-11T19:37:15.506Z,100773.16
2023-02-11T19:39:44.414Z,100757.56
2023-02-11T19:42:13.079Z,100769.91
2023-02-11T19:44:40.306Z,100758.94
2023-02-11T19:47:07.900Z,100765.09
2023-02-11T19:49:35.722Z,100768.16
2023-02-11T19:52:03.661Z,100757.91
2023-02-11T19:54:31.089Z,100762.28
2023-02-11T19:56:58.955Z,100761.94
2023-02-11T19:59:26.888Z,100761.34
2023-02-11T20:01:54.501Z,100759.72
2023-02-11T20:04:22.091Z,100762.22
2023-02-11T20:06:49.511Z,100762.06
2023-02-11T20:09:17.038Z,100764.91
2023-02-11T20:11:44.783Z,100753.13
2023-02-11T20:14:16.993Z,100763.53
2023-02-11T20:16:49.005Z,100768.31
2023-02-11T20:19:21.916Z,100768.41
2023-02-11T20:21:55.815Z,100765.56
2023-02-11T20:24:25.246Z,100767.88
2023-02-11T20:26:57.124Z,100756.84
2023-02-11T20:29:25.863Z,100756.94
2023-02-11T20:31:54.716Z,100763.44
2023-02-11T20:34:22.443Z,100760.00
2023-02-11T20:36:53.096Z,100756.09
2023-02-11T20:39:23.693Z,100753.31
2023-02-11T20:41:57.641Z,100767.47
2023-02-11T20:44:27.397Z,100769.06
2023-02-11T20:46:57.945Z,100768.16
2023-02-11T20:49:26.892Z,100773.09
2023-02-11T20:51:55.570Z,100773.97
2023-02-11T20:54:24.416Z,100770.53
2023-02-11T20:56:54.078Z,100767.38
2023-02-11T20:59:21.432Z,100762.38
2023-02-11T21:01:56.033Z,100772.50
2023-02-11T21:04:35.793Z,100772.19
2023-02-11T21:07:03.166Z,100772.00
2023-02-11T21:09:33.284Z,100772.34
2023-02-11T21:12:02.321Z,100772.81
2023-02-11T21:14:31.195Z,100777.72
2023-02-11T21:17:04.159Z,100780.72
2023-02-11T21:19:31.394Z,100772.88
2023-02-11T21:22:00.615Z,100773.78
2023-02-11T21:24:28.218Z,100776.44
2023-02-11T21:26:56.284Z,100776.44
2023-02-11T21:29:23.569Z,100781.03
2023-02-11T21:31:51.446Z,100783.31
2023-02-11T21:34:20.797Z,100788.06
2023-02-11T21:36:51.148Z,100794.84
2023-02-11T21:39:20.248Z,100791.94
2023-02-11T21:41:47.827Z,100792.03
2023-02-11T21:44:15.321Z,100791.78
2023-02-11T21:46:42.645Z,100795.25
2023-02-11T21:49:10.198Z,100798.25
2023-02-11T21:51:37.471Z,100808.09
2023-02-11T21:54:05.144Z,100808.97
2023-02-11T21:56:35.121Z,100806.09
2023-02-11T21:59:02.564Z,100803.31
2023-02-11T22:01:35.559Z,100801.72
2023-02-11T22:04:03.851Z,100796.31
2023-02-11T22:06:37.480Z,100804.16
2023-02-11T22:09:11.144Z,100807.16
2023-02-11T22:11:38.723Z,100808.63
2023-02-11T22:14:06.404Z,100810.56
2023-02-11T22:16:33.748Z,100806.97
2023-02-11T22:19:02.560Z,100815.09
2023-02-11T22:21:30.422Z,100820.41
2023-02-11T22:24:00.346Z,100816.19
2023-02-11T22:26:28.505Z,100814.78
2023-02-11T22:28:57.531Z,100824.13
2023-02-11T22:31:33.458Z,100818.50
2023-02-11T22:34:04.699Z,100824.78
2023-02-11T22:36:40.402Z,100821.44
2023-02-11T22:39:14.459Z,100826.84
2023-02-11T22:44:14.077Z,100829.72
2023-02-11T22:46:41.282Z,100826.00
2023-02-11T22:49:10.343Z,100822.50
2023-02-11T22:51:39.932Z,100825.28
2023-02-11T22:54:14.673Z,100821.06
2023-02-11T22:56:42.944Z,100817.63
2023-02-11T22:59:15.405Z,100809.88
2023-02-11T23:01:43.568Z,100811.78
2023-02-11T23:04:16.084Z,100821.31
2023-02-11T23:09:14.902Z,100820.09
2023-02-11T23:11:42.885Z,100811.81
2023-02-11T23:14:12.175Z,100813.63
2023-02-11T23:16:40.099Z,100814.28
2023-02-11T23:19:10.399Z,100814.47
2023-02-11T23:21:39.943Z,100810.66
2023-02-11T23:24:17.292Z,100814.34
2023-02-11T23:26:45.172Z,100819.97
2023-02-11T23:29:13.109Z,100819.66
2023-02-11T23:31:45.213Z,100825.75
2023-02-11T23:34:17.211Z,100818.41
2023-02-11T23:36:44.720Z,100828.00
2023-02-11T23:39:15.922Z,100836.75
2023-02-11T23:41:43.436Z,100839.47
2023-02-11T23:44:11.939Z,100839.81
2023-02-11T23:46:39.500Z,100833.97
2023-02-11T23:49:10.302Z,100840.19
2023-02-11T23:51:37.581Z,100833.13
2023-02-11T23:54:04.921Z,100839.41
2023-02-11T23:56:32.337Z,100841.91
2023-02-11T23:58:59.756Z,100831.47
